Overview Statistics Trail Chart Weather Telemetry Raw packets
 

This is the latest recevied weather packets stored in our database for station/object KG5VSR. If no packets are shown the sender has not sent any weather packets the latest 10 day(s).

<< 2 3 4 5 6 7 8 >>
Time Temp. Humidity Pressure Rain* Wind** Luminosity Snow
1788502452 26.67° C 82% 1013.7 hPa 0 mm - 0 W/m² -
1788500649 26.67° C 80% 1013.9 hPa 0 mm - 0 W/m² -
1788498845 27.22° C 79% 1013.7 hPa 0 mm - 0 W/m² -
1788497046 27.22° C 78% 1013.9 hPa 0 mm - 0 W/m² -
1788495243 27.78° C 77% 1013.9 hPa 0 mm - 0 W/m² -
1788493444 27.78° C 74% 1014 hPa 0 mm - 0 W/m² -
1788491639 27.78° C 72% 1013.9 hPa 0 mm - 0 W/m² -
1788489839 28.33° C 71% 1013.5 hPa 0 mm - 0 W/m² -
1788488036 28.33° C 71% 1013 hPa 0 mm - 0 W/m² -
1788486232 28.89° C 75% 1012.7 hPa 0 mm - 0 W/m² -
1788484432 29.44° C 75% 1012.5 hPa 0 mm - 0 W/m² -
1788482629 30° C 69% 1012.1 hPa 0 mm - 3 W/m² -
1788480828 30.56° C 70% 1012 hPa 0 mm - 22 W/m² -
1788479026 31.11° C 68% 1011.7 hPa 0 mm - 34 W/m² -
1788477225 31.67° C 66% 1011.7 hPa 0 mm - 138 W/m² -
1788475423 32.78° C 63% 1011.5 hPa 0 mm - 66 W/m² -
1788473623 33.33° C 61% 1011.3 hPa 0 mm - 336 W/m² -
1788471823 32.78° C 64% 1011.9 hPa 0 mm - 435 W/m² -
1788470023 32.22° C 66% 1012 hPa 0 mm - 509 W/m² -
1788468221 32.22° C 67% 1012.2 hPa 0 mm - 374 W/m² -
1788466420 32.22° C 67% 1012.5 hPa 0 mm - 671 W/m² -
1788464619 31.11° C 70% 1013 hPa 0 mm - 510 W/m² -
1788462818 30° C 73% 1013.2 hPa 0 mm - 200 W/m² -
1788461017 30° C 74% 1013.7 hPa 0 mm - 407 W/m² -
1788459212 29.44° C 76% 1013.9 hPa 0 mm - 297 W/m² -

* Rain latest hour (hover to see other rain measurements)
** Current wind speed in m/s (hover to see current wind gust speed)